EXS19G EGSS-LEMG
Flight info
| Callsign | EXS19G |
|---|---|
| Flight time | N/A |
| Altitude | 33000 |
| Route | NUGBO M183 SILVA Q41 SAM M195 MARUK N621 LELNA DCT NOVAN DCT DELOG N864 VULPE |
| Aircraft | A321/M-SDE3FGHIRWY/LB1 |
Departure
| Time | 2026-05-01 14:05 |
|---|---|
| Airport | London Stansted Airport (EGSS) |
Arrival
| Time | N/A |
|---|---|
| Airport | Málaga-Costa del Sol Airport (LEMG) |
| Time | Latitude | Longitude | Altitude | Speed | Heading |
|---|---|---|---|---|---|
| 2026-05-01 13:26 | 51.89147 | 0.25746 | 349 ft | 0 kts | 223° |
| 2026-05-01 13:51 | 51.89159 | 0.25764 | 349 ft | 4 kts | 223° |
| 2026-05-01 13:51 | 51.89176 | 0.25788 | 349 ft | 3 kts | 223° |
| 2026-05-01 13:51 | 51.89189 | 0.25818 | 356 ft | 4 kts | 272° |
| 2026-05-01 13:51 | 51.89180 | 0.25849 | 349 ft | 4 kts | 313° |
| 2026-05-01 13:52 | 51.89171 | 0.25864 | 349 ft | 0 kts | 313° |
| 2026-05-01 13:53 | 51.89171 | 0.25863 | 349 ft | 0 kts | 313° |
| 2026-05-01 13:54 | 51.89193 | 0.25825 | 355 ft | 6 kts | 312° |
| 2026-05-01 13:54 | 51.89230 | 0.25761 | 349 ft | 10 kts | 313° |
| 2026-05-01 13:54 | 51.89273 | 0.25688 | 350 ft | 8 kts | 313° |
| 2026-05-01 13:54 | 51.89310 | 0.25625 | 349 ft | 7 kts | 313° |
| 2026-05-01 13:55 | 51.89368 | 0.25549 | 351 ft | 15 kts | 325° |
| 2026-05-01 13:55 | 51.89413 | 0.25422 | 349 ft | 13 kts | 252° |
| 2026-05-01 13:55 | 51.89356 | 0.25315 | 351 ft | 12 kts | 221° |
| 2026-05-01 13:55 | 51.89295 | 0.25227 | 349 ft | 11 kts | 223° |
| 2026-05-01 13:56 | 51.89249 | 0.25132 | 355 ft | 10 kts | 237° |
| 2026-05-01 13:56 | 51.89212 | 0.25040 | 355 ft | 9 kts | 234° |
| 2026-05-01 13:56 | 51.89156 | 0.24949 | 351 ft | 16 kts | 223° |
| 2026-05-01 13:56 | 51.89073 | 0.24824 | 355 ft | 16 kts | 223° |
| 2026-05-01 13:57 | 51.88993 | 0.24705 | 351 ft | 15 kts | 222° |
| 2026-05-01 13:57 | 51.88918 | 0.24592 | 355 ft | 14 kts | 223° |
| 2026-05-01 13:57 | 51.88847 | 0.24486 | 356 ft | 13 kts | 223° |
| 2026-05-01 13:57 | 51.88778 | 0.24381 | 353 ft | 16 kts | 223° |
| 2026-05-01 13:58 | 51.88685 | 0.24241 | 352 ft | 18 kts | 223° |
| 2026-05-01 13:58 | 51.88594 | 0.24105 | 351 ft | 17 kts | 223° |
| 2026-05-01 13:58 | 51.88497 | 0.23961 | 349 ft | 23 kts | 222° |
| 2026-05-01 13:58 | 51.88372 | 0.23773 | 352 ft | 24 kts | 223° |
| 2026-05-01 13:59 | 51.88250 | 0.23590 | 352 ft | 23 kts | 223° |
| 2026-05-01 13:59 | 51.88132 | 0.23414 | 354 ft | 23 kts | 223° |
| 2026-05-01 13:59 | 51.88019 | 0.23244 | 357 ft | 22 kts | 223° |
| 2026-05-01 13:59 | 51.87909 | 0.23080 | 353 ft | 21 kts | 223° |
| 2026-05-01 14:00 | 51.87805 | 0.22922 | 355 ft | 20 kts | 223° |
| 2026-05-01 14:00 | 51.87703 | 0.22771 | 351 ft | 19 kts | 222° |
| 2026-05-01 14:00 | 51.87605 | 0.22627 | 356 ft | 19 kts | 223° |
| 2026-05-01 14:00 | 51.87521 | 0.22490 | 354 ft | 16 kts | 242° |
| 2026-05-01 14:01 | 51.87571 | 0.22340 | 339 ft | 17 kts | 315° |
| 2026-05-01 14:01 | 51.87666 | 0.22265 | 334 ft | 11 kts | 357° |
| 2026-05-01 14:01 | 51.87709 | 0.22296 | 338 ft | 0 kts | 39° |
| 2026-05-01 14:04 | 51.87776 | 0.22393 | 348 ft | 43 kts | 43° |
| 2026-05-01 14:04 | 51.88177 | 0.22994 | 333 ft | 111 kts | 42° |
| 2026-05-01 14:04 | 51.88879 | 0.24048 | 339 ft | 162 kts | 42° |
| 2026-05-01 14:04 | 51.89444 | 0.24907 | 600 ft | 165 kts | 45° |
| 2026-05-01 14:05 | 51.90521 | 0.26597 | 1489 ft | 162 kts | 50° |
| 2026-05-01 14:05 | 51.91342 | 0.27883 | 2036 ft | 167 kts | 48° |
| 2026-05-01 14:05 | 51.92255 | 0.29191 | 2356 ft | 185 kts | 39° |
| 2026-05-01 14:05 | 51.93547 | 0.29941 | 2527 ft | 212 kts | 6° |
| 2026-05-01 14:06 | 51.95067 | 0.29546 | 2762 ft | 235 kts | 335° |
| 2026-05-01 14:06 | 51.96359 | 0.27812 | 2865 ft | 254 kts | 300° |
| 2026-05-01 14:06 | 51.96911 | 0.25036 | 3326 ft | 266 kts | 275° |
| 2026-05-01 14:06 | 51.97207 | 0.22059 | 4141 ft | 267 kts | 277° |
| 2026-05-01 14:07 | 51.97535 | 0.19085 | 4907 ft | 271 kts | 277° |
| 2026-05-01 14:07 | 51.97871 | 0.16082 | 5140 ft | 270 kts | 277° |
| 2026-05-01 14:07 | 51.98207 | 0.13088 | 5183 ft | 269 kts | 276° |
| 2026-05-01 14:08 | 51.98853 | 0.07054 | 6494 ft | 270 kts | 270° |
| 2026-05-01 14:08 | 51.98686 | 0.04061 | 7187 ft | 266 kts | 248° |
| 2026-05-01 14:08 | 51.97906 | 0.01345 | 7849 ft | 267 kts | 238° |
| 2026-05-01 14:08 | 51.97024 | -0.01332 | 8095 ft | 270 kts | 238° |
| 2026-05-01 14:09 | 51.96130 | -0.04020 | 8159 ft | 271 kts | 238° |
| 2026-05-01 14:09 | 51.95237 | -0.06713 | 8165 ft | 271 kts | 238° |
| 2026-05-01 14:09 | 51.94343 | -0.09406 | 8163 ft | 271 kts | 239° |
| 2026-05-01 14:09 | 51.93452 | -0.12099 | 8164 ft | 271 kts | 238° |
| 2026-05-01 14:10 | 51.92560 | -0.14793 | 8170 ft | 272 kts | 238° |
| 2026-05-01 14:10 | 51.91666 | -0.17490 | 8174 ft | 271 kts | 238° |
| 2026-05-01 14:10 | 51.90772 | -0.20182 | 8168 ft | 271 kts | 238° |
| 2026-05-01 14:10 | 51.89877 | -0.22865 | 8165 ft | 271 kts | 238° |
| 2026-05-01 14:11 | 51.88980 | -0.25555 | 8175 ft | 272 kts | 238° |
| 2026-05-01 14:11 | 51.87167 | -0.30985 | 9438 ft | 276 kts | 238° |
| 2026-05-01 14:11 | 51.86253 | -0.33723 | 10136 ft | 279 kts | 238° |
| 2026-05-01 14:12 | 51.85301 | -0.36565 | 10406 ft | 298 kts | 238° |
| 2026-05-01 14:12 | 51.84296 | -0.39564 | 10530 ft | 318 kts | 238° |
| 2026-05-01 14:12 | 51.83218 | -0.42784 | 10835 ft | 330 kts | 238° |
| 2026-05-01 14:12 | 51.82111 | -0.46082 | 11385 ft | 335 kts | 238° |
| 2026-05-01 14:13 | 51.80996 | -0.49398 | 11979 ft | 338 kts | 238° |
| 2026-05-01 14:13 | 51.80237 | -0.51655 | 12395 ft | 340 kts | 238° |
| 2026-05-01 14:13 | 51.78720 | -0.56170 | 13240 ft | 344 kts | 238° |
| 2026-05-01 14:13 | 51.77570 | -0.59586 | 13831 ft | 347 kts | 238° |
| 2026-05-01 14:14 | 51.76412 | -0.63022 | 14361 ft | 350 kts | 238° |
| 2026-05-01 14:14 | 51.75243 | -0.66481 | 14896 ft | 352 kts | 237° |
| 2026-05-01 14:14 | 51.74064 | -0.69968 | 15423 ft | 355 kts | 238° |
| 2026-05-01 14:14 | 51.72874 | -0.73482 | 15957 ft | 358 kts | 237° |
| 2026-05-01 14:15 | 51.71678 | -0.77011 | 16479 ft | 360 kts | 237° |
| 2026-05-01 14:15 | 51.70471 | -0.80564 | 16988 ft | 363 kts | 237° |
| 2026-05-01 14:15 | 51.69252 | -0.84146 | 17479 ft | 366 kts | 237° |
| 2026-05-01 14:15 | 51.68025 | -0.87747 | 17968 ft | 368 kts | 237° |